createdAt,value
2016-07-10T00:00:29.991Z,23.78
2016-07-10T00:01:30.055Z,23.81
2016-07-10T00:02:30.058Z,23.75
2016-07-10T00:03:30.029Z,23.78
2016-07-10T00:04:30.061Z,23.75
2016-07-10T00:05:30.089Z,23.74
2016-07-10T00:06:30.075Z,23.82
2016-07-10T00:07:30.066Z,23.72
2016-07-10T00:08:30.081Z,23.74
2016-07-10T00:09:30.113Z,23.75
2016-07-10T00:10:30.133Z,23.75
2016-07-10T00:11:30.109Z,23.74
2016-07-10T00:12:30.101Z,23.72
2016-07-10T00:13:30.136Z,23.75
2016-07-10T00:14:30.172Z,23.77
2016-07-10T00:15:30.168Z,23.72
2016-07-10T00:16:30.151Z,23.71
2016-07-10T00:17:30.195Z,23.75
2016-07-10T00:18:30.191Z,23.72
2016-07-10T00:19:30.220Z,23.7
2016-07-10T00:20:30.222Z,23.72
2016-07-10T00:21:30.195Z,23.71
2016-07-10T00:22:30.241Z,23.72
2016-07-10T00:23:30.234Z,23.67
2016-07-10T00:24:30.232Z,23.67
2016-07-10T00:25:30.244Z,23.64
2016-07-10T00:26:30.247Z,23.71
2016-07-10T00:27:30.252Z,23.71
2016-07-10T00:28:30.249Z,23.72
2016-07-10T00:29:30.295Z,23.74
2016-07-10T00:30:30.277Z,23.64
2016-07-10T00:31:30.320Z,23.7
2016-07-10T00:32:30.315Z,23.66
2016-07-10T00:33:30.322Z,23.71
2016-07-10T00:34:30.311Z,23.7
2016-07-10T00:35:30.307Z,23.63
2016-07-10T00:36:30.346Z,23.66
2016-07-10T00:37:30.388Z,23.71
2016-07-10T00:38:30.380Z,23.59
2016-07-10T00:39:30.403Z,23.66
2016-07-10T00:40:30.385Z,23.62
2016-07-10T00:41:30.385Z,23.67
2016-07-10T00:42:30.399Z,23.7
2016-07-10T00:43:30.408Z,23.7
2016-07-10T00:44:30.404Z,23.64
2016-07-10T00:45:30.424Z,23.62
2016-07-10T00:46:30.449Z,23.66
2016-07-10T00:47:30.441Z,23.7
2016-07-10T00:48:30.462Z,23.63
2016-07-10T00:49:30.465Z,23.59
2016-07-10T00:50:30.504Z,23.71
2016-07-10T00:51:30.475Z,23.66
2016-07-10T00:52:30.507Z,23.6
2016-07-10T00:53:30.502Z,23.59
2016-07-10T00:54:30.548Z,23.56
2016-07-10T00:55:30.492Z,23.56
2016-07-10T00:56:30.545Z,23.56
2016-07-10T00:57:30.567Z,23.56
2016-07-10T00:58:30.571Z,23.56
2016-07-10T00:59:30.600Z,23.6
2016-07-10T01:00:30.576Z,23.56
2016-07-10T01:01:30.547Z,23.6
2016-07-10T01:02:30.573Z,23.56
2016-07-10T01:03:30.595Z,23.56
2016-07-10T01:04:30.597Z,23.57
2016-07-10T01:05:30.588Z,23.55
2016-07-10T01:06:30.637Z,23.55
2016-07-10T01:07:30.665Z,23.56
2016-07-10T01:08:30.645Z,23.57
2016-07-10T01:09:30.653Z,23.6
2016-07-10T01:10:30.655Z,23.56
2016-07-10T01:11:30.671Z,23.57
2016-07-10T01:12:30.694Z,23.56
2016-07-10T01:13:30.670Z,23.52
2016-07-10T01:14:30.666Z,23.6
2016-07-10T01:15:30.719Z,23.55
2016-07-10T01:16:30.716Z,23.62
2016-07-10T01:17:30.712Z,23.56
2016-07-10T01:18:30.715Z,23.57
2016-07-10T01:19:30.755Z,23.45
2016-07-10T01:20:30.742Z,23.45
2016-07-10T01:21:30.762Z,23.59
2016-07-10T01:22:30.798Z,23.47
2016-07-10T01:23:30.767Z,23.53
2016-07-10T01:24:30.793Z,23.48
2016-07-10T01:25:30.793Z,23.5
2016-07-10T01:26:30.804Z,23.5
2016-07-10T01:27:30.787Z,23.52
2016-07-10T01:28:30.793Z,23.48
2016-07-10T01:29:30.807Z,23.53
2016-07-10T01:30:30.846Z,23.55
2016-07-10T01:31:30.859Z,23.5
2016-07-10T01:32:30.862Z,23.42
2016-07-10T01:33:30.894Z,23.45
2016-07-10T01:34:30.868Z,23.52
2016-07-10T01:35:30.859Z,23.52
2016-07-10T01:36:30.916Z,23.53
2016-07-10T01:37:30.880Z,23.48
2016-07-10T01:38:30.908Z,23.53
2016-07-10T01:39:30.902Z,23.48
2016-07-10T01:40:30.951Z,23.52
2016-07-10T01:41:30.947Z,23.52
2016-07-10T01:42:30.940Z,23.5
2016-07-10T01:43:30.945Z,23.55
2016-07-10T01:44:30.982Z,23.5
2016-07-10T01:45:30.976Z,23.59
2016-07-10T01:46:30.991Z,23.53
2016-07-10T01:47:30.993Z,23.53
2016-07-10T01:48:31.001Z,23.45
2016-07-10T01:49:31.018Z,23.5
2016-07-10T01:50:31.029Z,23.56
2016-07-10T01:51:31.015Z,23.37
2016-07-10T01:52:31.013Z,23.53
2016-07-10T01:53:31.018Z,23.48
2016-07-10T01:54:31.043Z,23.47
2016-07-10T01:55:31.066Z,23.41
2016-07-10T01:56:31.105Z,23.37
2016-07-10T01:57:31.135Z,23.45
2016-07-10T01:58:31.103Z,23.52
2016-07-10T01:59:31.113Z,23.45
2016-07-10T02:00:31.086Z,23.41
2016-07-10T02:01:31.117Z,23.45
2016-07-10T02:02:31.142Z,23.4
2016-07-10T02:03:31.131Z,23.5
2016-07-10T02:04:31.143Z,23.48
2016-07-10T02:05:31.155Z,23.42
2016-07-10T02:06:31.156Z,23.42
2016-07-10T02:07:31.185Z,23.42
2016-07-10T02:08:31.191Z,23.4
2016-07-10T02:09:31.202Z,23.42
2016-07-10T02:10:31.195Z,23.41
2016-07-10T02:11:31.229Z,23.4
2016-07-10T02:12:31.246Z,23.37
2016-07-10T02:13:31.253Z,23.42
2016-07-10T02:14:31.235Z,23.38
2016-07-10T02:15:31.232Z,23.41
2016-07-10T02:16:31.272Z,23.41
2016-07-10T02:17:31.254Z,23.37
2016-07-10T02:18:31.284Z,23.37
2016-07-10T02:19:31.290Z,23.4
2016-07-10T02:20:31.287Z,23.41
2016-07-10T02:21:31.309Z,23.41
2016-07-10T02:22:31.342Z,23.4
2016-07-10T02:23:31.300Z,23.34
2016-07-10T02:24:31.300Z,23.4
2016-07-10T02:25:31.335Z,23.38
2016-07-10T02:26:31.346Z,23.34
2016-07-10T02:27:31.362Z,23.29
2016-07-10T02:28:31.391Z,23.37
2016-07-10T02:29:31.368Z,23.4
2016-07-10T02:30:31.358Z,23.4
2016-07-10T02:31:31.390Z,23.29
2016-07-10T02:32:31.424Z,23.34
2016-07-10T02:33:31.418Z,23.34
2016-07-10T02:34:31.429Z,23.34
2016-07-10T02:35:31.436Z,23.45
2016-07-10T02:36:31.456Z,23.35
2016-07-10T02:37:31.463Z,23.37
2016-07-10T02:38:31.473Z,23.34
2016-07-10T02:39:31.432Z,23.42
2016-07-10T02:40:31.505Z,23.34
2016-07-10T02:41:31.489Z,23.38
2016-07-10T02:42:31.495Z,23.41
2016-07-10T02:43:31.507Z,23.37
2016-07-10T02:44:31.529Z,23.41
2016-07-10T02:45:31.525Z,23.4
2016-07-10T02:46:31.521Z,23.38
2016-07-10T02:47:31.512Z,23.41
2016-07-10T02:48:31.523Z,23.32
2016-07-10T02:49:31.530Z,23.37
2016-07-10T02:50:31.560Z,23.37
2016-07-10T02:51:31.591Z,23.35
2016-07-10T02:52:31.604Z,23.4
2016-07-10T02:53:31.637Z,23.37
2016-07-10T02:54:31.603Z,23.35
2016-07-10T02:55:31.627Z,23.34
2016-07-10T02:56:31.622Z,23.4
2016-07-10T02:57:31.626Z,23.38
2016-07-10T02:58:31.634Z,23.42
2016-07-10T02:59:31.624Z,23.38
2016-07-10T03:00:31.648Z,23.29
2016-07-10T03:01:31.664Z,23.4
2016-07-10T03:02:31.641Z,23.38
2016-07-10T03:03:31.694Z,23.38
2016-07-10T03:04:31.679Z,23.41
2016-07-10T03:05:31.692Z,23.38
2016-07-10T03:06:31.727Z,23.4
2016-07-10T03:07:31.737Z,23.4
2016-07-10T03:08:31.745Z,23.37
2016-07-10T03:09:31.739Z,23.37
2016-07-10T03:10:31.769Z,23.35
2016-07-10T03:11:31.732Z,23.38
2016-07-10T03:12:31.759Z,23.35
2016-07-10T03:13:31.775Z,23.35
2016-07-10T03:14:31.772Z,23.35
2016-07-10T03:15:31.788Z,23.37
2016-07-10T03:16:31.803Z,23.35
2016-07-10T03:17:31.819Z,23.32
2016-07-10T03:18:31.830Z,23.35
2016-07-10T03:19:31.853Z,23.38
2016-07-10T03:20:31.823Z,23.37
2016-07-10T03:21:31.869Z,23.37
2016-07-10T03:22:31.842Z,23.35
2016-07-10T03:23:31.865Z,23.37
2016-07-10T03:24:31.860Z,23.37
2016-07-10T03:25:31.907Z,23.34
2016-07-10T03:26:31.897Z,23.37
2016-07-10T03:27:31.895Z,23.37
2016-07-10T03:28:31.918Z,23.37
2016-07-10T03:29:31.911Z,23.38
2016-07-10T03:30:31.918Z,23.4
2016-07-10T03:31:31.936Z,23.38
2016-07-10T03:32:31.915Z,23.4
2016-07-10T03:33:31.940Z,23.37
2016-07-10T03:34:31.968Z,23.4
2016-07-10T03:35:31.955Z,23.29
2016-07-10T03:36:31.951Z,23.35
2016-07-10T03:37:32.018Z,23.4
2016-07-10T03:38:31.977Z,23.37
2016-07-10T03:39:32.018Z,23.41
2016-07-10T03:40:32.006Z,23.38
2016-07-10T03:41:31.990Z,23.35
2016-07-10T03:42:32.004Z,23.35
2016-07-10T03:43:32.046Z,23.37
2016-07-10T03:44:32.049Z,23.34
2016-07-10T03:45:32.028Z,23.35
2016-07-10T03:46:32.073Z,23.29
2016-07-10T03:47:32.071Z,23.29
2016-07-10T03:48:32.056Z,23.41
2016-07-10T03:49:32.089Z,23.35
2016-07-10T03:50:32.124Z,23.35
2016-07-10T03:51:32.101Z,23.29
2016-07-10T03:52:32.134Z,23.38
2016-07-10T03:53:32.123Z,23.37
2016-07-10T03:54:32.144Z,23.28
2016-07-10T03:55:32.150Z,23.38
2016-07-10T03:56:32.182Z,23.25
2016-07-10T03:57:32.175Z,23.35
2016-07-10T03:58:32.166Z,23.24
2016-07-10T03:59:32.185Z,23.34
2016-07-10T04:00:32.186Z,23.32
2016-07-10T04:01:32.195Z,23.37
2016-07-10T04:02:32.203Z,23.38
2016-07-10T04:03:32.231Z,23.38
2016-07-10T04:04:32.234Z,23.4
2016-07-10T04:05:32.251Z,23.34
2016-07-10T04:06:32.241Z,23.38
2016-07-10T04:07:32.227Z,23.26
2016-07-10T04:08:32.286Z,23.32
2016-07-10T04:09:32.265Z,23.32
2016-07-10T04:10:32.296Z,23.34
2016-07-10T04:11:32.282Z,23.32
2016-07-10T04:12:32.286Z,23.37
2016-07-10T04:13:32.315Z,23.34
2016-07-10T04:14:32.334Z,23.38
2016-07-10T04:15:32.333Z,23.29
2016-07-10T04:16:32.326Z,23.38
2016-07-10T04:17:32.370Z,23.37
2016-07-10T04:18:32.353Z,23.34
2016-07-10T04:19:32.354Z,23.35
2016-07-10T04:20:32.364Z,23.35
2016-07-10T04:21:32.373Z,23.29
2016-07-10T04:22:32.378Z,23.37
2016-07-10T04:23:32.380Z,23.37
2016-07-10T04:24:32.419Z,23.38
2016-07-10T04:25:32.395Z,23.4
2016-07-10T04:26:32.425Z,23.4
2016-07-10T04:27:32.404Z,23.41
2016-07-10T04:28:32.452Z,23.34
2016-07-10T04:29:32.443Z,23.4
2016-07-10T04:30:32.452Z,23.34
2016-07-10T04:31:32.494Z,23.35
2016-07-10T04:32:32.455Z,23.29
2016-07-10T04:33:32.489Z,23.34
2016-07-10T04:34:32.482Z,23.34
2016-07-10T04:35:32.513Z,23.38
2016-07-10T04:36:32.500Z,23.29
2016-07-10T04:37:32.497Z,23.34
2016-07-10T04:38:32.499Z,23.37
2016-07-10T04:39:32.534Z,23.38
2016-07-10T04:40:32.515Z,23.37
2016-07-10T04:41:32.546Z,23.37
2016-07-10T04:42:32.542Z,23.41
2016-07-10T04:43:32.590Z,23.34
2016-07-10T04:44:32.580Z,23.38
2016-07-10T04:45:32.566Z,23.42
2016-07-10T04:46:32.600Z,23.42
2016-07-10T04:47:32.698Z,23.37
2016-07-10T04:48:32.630Z,23.42
2016-07-10T04:49:32.646Z,23.47
2016-07-10T04:50:32.655Z,23.42
2016-07-10T04:51:32.655Z,23.44
2016-07-10T04:52:32.659Z,23.4
2016-07-10T04:53:32.663Z,23.41
2016-07-10T04:54:32.668Z,23.41
2016-07-10T04:55:32.654Z,23.4
2016-07-10T04:56:32.690Z,23.4
2016-07-10T04:57:32.696Z,23.41
2016-07-10T04:58:32.715Z,23.45
2016-07-10T04:59:32.690Z,23.41
2016-07-10T05:00:32.746Z,23.44
2016-07-10T05:01:32.745Z,23.41
2016-07-10T05:02:32.740Z,23.41
2016-07-10T05:03:32.748Z,23.38
2016-07-10T05:04:32.757Z,23.42
2016-07-10T05:05:32.763Z,23.5
2016-07-10T05:06:32.749Z,23.48
2016-07-10T05:07:32.806Z,23.42
2016-07-10T05:08:32.769Z,23.45
2016-07-10T05:09:32.790Z,23.41
2016-07-10T05:10:32.848Z,23.45
2016-07-10T05:11:32.800Z,23.45
2016-07-10T05:12:32.820Z,23.42
2016-07-10T05:13:32.827Z,23.48
2016-07-10T05:14:32.826Z,23.53
2016-07-10T05:15:32.887Z,23.42
2016-07-10T05:16:32.863Z,23.45
2016-07-10T05:17:32.904Z,23.38
2016-07-10T05:18:32.914Z,23.47
2016-07-10T05:19:32.904Z,23.52
2016-07-10T05:20:32.898Z,23.5
2016-07-10T05:21:32.896Z,23.5
2016-07-10T05:22:32.931Z,23.47
2016-07-10T05:23:32.926Z,23.5
2016-07-10T05:24:32.928Z,23.53
2016-07-10T05:25:32.947Z,23.57
2016-07-10T05:26:32.942Z,23.41
2016-07-10T05:27:32.999Z,23.53
2016-07-10T05:28:32.966Z,23.47
2016-07-10T05:29:32.962Z,23.48
2016-07-10T05:30:32.988Z,23.56
2016-07-10T05:31:32.999Z,23.5
2016-07-10T05:32:33.000Z,23.52
2016-07-10T05:33:33.082Z,23.52
2016-07-10T05:34:33.003Z,23.48
2016-07-10T05:35:33.066Z,23.48
2016-07-10T05:36:33.076Z,23.5
2016-07-10T05:37:33.069Z,23.48
2016-07-10T05:38:33.089Z,23.52
2016-07-10T05:39:33.158Z,23.53
2016-07-10T05:40:33.114Z,23.53
2016-07-10T05:41:33.109Z,23.42
2016-07-10T05:42:33.108Z,23.47
2016-07-10T05:43:33.110Z,23.53
2016-07-10T05:44:33.139Z,23.47
2016-07-10T05:45:33.131Z,23.55
2016-07-10T05:46:33.149Z,23.53
2016-07-10T05:47:33.148Z,23.55
2016-07-10T05:48:33.132Z,23.56
2016-07-10T05:49:33.197Z,23.53
2016-07-10T05:50:33.194Z,23.53
2016-07-10T05:51:33.162Z,23.52
2016-07-10T05:52:33.215Z,23.56
2016-07-10T05:53:33.221Z,23.52
2016-07-10T05:54:33.234Z,23.53
2016-07-10T05:55:33.239Z,23.55
2016-07-10T05:56:33.199Z,23.59
2016-07-10T05:57:33.221Z,23.56
2016-07-10T05:58:33.277Z,23.56
2016-07-10T05:59:33.254Z,23.52
2016-07-10T06:00:33.904Z,23.55
2016-07-10T06:01:33.251Z,23.57
2016-07-10T06:02:33.292Z,23.59
2016-07-10T06:03:33.272Z,23.59
2016-07-10T06:04:33.287Z,23.59
2016-07-10T06:05:33.341Z,23.57
2016-07-10T06:06:33.326Z,23.59
2016-07-10T06:07:33.321Z,23.57
2016-07-10T06:08:33.336Z,23.56
2016-07-10T06:09:33.341Z,23.64
2016-07-10T06:10:33.329Z,23.7
2016-07-10T06:11:33.393Z,23.7
2016-07-10T06:12:33.357Z,23.63
2016-07-10T06:13:33.367Z,23.66
2016-07-10T06:14:33.381Z,23.66
2016-07-10T06:15:33.421Z,23.64
2016-07-10T06:16:33.419Z,23.67
2016-07-10T06:17:33.395Z,23.64
2016-07-10T06:18:33.404Z,23.62
2016-07-10T06:19:33.462Z,23.72
2016-07-10T06:20:33.449Z,23.67
2016-07-10T06:21:33.479Z,23.64
2016-07-10T06:22:33.464Z,23.67
2016-07-10T06:23:33.483Z,23.7
2016-07-10T06:24:33.479Z,23.71
2016-07-10T06:25:33.486Z,23.72
2016-07-10T06:26:33.526Z,23.72
2016-07-10T06:27:33.518Z,23.62
2016-07-10T06:28:33.519Z,23.62
2016-07-10T06:29:33.538Z,23.67
2016-07-10T06:30:33.570Z,23.64
2016-07-10T06:31:33.533Z,23.67
2016-07-10T06:32:33.561Z,23.71
2016-07-10T06:33:33.553Z,23.72
2016-07-10T06:34:33.545Z,23.75
2016-07-10T06:35:33.593Z,23.71
2016-07-10T06:36:33.564Z,23.77
2016-07-10T06:37:33.609Z,23.77
2016-07-10T06:38:33.607Z,23.78
2016-07-10T06:39:33.604Z,23.72
2016-07-10T06:40:33.628Z,23.74
2016-07-10T06:41:33.638Z,23.74
2016-07-10T06:42:33.649Z,23.72
2016-07-10T06:43:33.662Z,23.78
2016-07-10T06:44:33.663Z,23.77
2016-07-10T06:45:33.647Z,23.78
2016-07-10T06:46:33.671Z,23.75
2016-07-10T06:47:33.670Z,23.74
2016-07-10T06:48:33.714Z,23.72
2016-07-10T06:49:33.707Z,23.67
2016-07-10T06:50:33.748Z,23.72
2016-07-10T06:51:33.744Z,23.74
2016-07-10T06:52:33.747Z,23.67
2016-07-10T06:53:33.775Z,23.74
2016-07-10T06:54:33.735Z,23.74
2016-07-10T06:55:33.750Z,23.72
2016-07-10T06:56:33.762Z,23.79
2016-07-10T06:57:33.813Z,23.81
2016-07-10T06:58:33.807Z,23.79
2016-07-10T06:59:33.814Z,23.78
2016-07-10T07:00:33.821Z,23.77
2016-07-10T07:01:33.817Z,23.75
2016-07-10T07:02:33.827Z,23.77
2016-07-10T07:03:33.839Z,23.81
2016-07-10T07:04:33.867Z,23.81
2016-07-10T07:05:33.874Z,23.82
2016-07-10T07:06:33.884Z,23.82
2016-07-10T07:07:33.881Z,23.78
2016-07-10T07:08:33.887Z,23.78
2016-07-10T07:09:33.891Z,23.78
2016-07-10T07:10:33.874Z,23.81
2016-07-10T07:11:33.938Z,23.77
2016-07-10T07:12:33.937Z,23.75
2016-07-10T07:13:33.940Z,23.74
2016-07-10T07:14:33.943Z,23.75
2016-07-10T07:15:33.955Z,23.79
2016-07-10T07:16:33.964Z,23.78
2016-07-10T07:17:33.987Z,23.81
2016-07-10T07:18:33.975Z,23.84
2016-07-10T07:19:33.991Z,23.82
2016-07-10T07:20:34.005Z,23.78
2016-07-10T07:21:34.009Z,23.82
2016-07-10T07:22:33.981Z,23.82
2016-07-10T07:23:34.010Z,23.81
2016-07-10T07:24:34.020Z,23.79
2016-07-10T07:25:34.063Z,23.79
2016-07-10T07:26:34.027Z,23.84
2016-07-10T07:27:34.092Z,23.84
2016-07-10T07:28:34.089Z,23.84
2016-07-10T07:29:34.069Z,23.84
2016-07-10T07:30:34.094Z,23.84
2016-07-10T07:31:34.090Z,23.89
2016-07-10T07:32:34.110Z,23.89
2016-07-10T07:33:34.103Z,23.87
2016-07-10T07:34:34.136Z,23.85
2016-07-10T07:35:34.116Z,23.87
2016-07-10T07:36:34.149Z,23.82
2016-07-10T07:37:34.119Z,23.85
2016-07-10T07:38:34.166Z,23.84
2016-07-10T07:39:34.235Z,23.84
2016-07-10T07:40:34.196Z,23.9
2016-07-10T07:41:34.192Z,23.92
2016-07-10T07:42:34.202Z,23.85
2016-07-10T07:43:34.198Z,23.85
2016-07-10T07:44:34.229Z,23.89
2016-07-10T07:45:34.224Z,23.87
2016-07-10T07:46:34.224Z,23.93
2016-07-10T07:47:34.251Z,23.89
2016-07-10T07:48:34.263Z,23.85
2016-07-10T07:49:34.255Z,23.87
2016-07-10T07:50:34.277Z,23.9
2016-07-10T07:51:34.265Z,23.96
2016-07-10T07:52:34.279Z,23.85
2016-07-10T07:53:34.292Z,23.93
2016-07-10T07:54:34.302Z,23.92
2016-07-10T07:55:34.323Z,23.96
2016-07-10T07:56:34.313Z,23.93
2016-07-10T07:57:34.323Z,23.92
2016-07-10T07:58:34.317Z,23.9
2016-07-10T07:59:34.382Z,23.9
2016-07-10T08:00:34.364Z,23.93
2016-07-10T08:01:34.379Z,23.96
2016-07-10T08:02:34.395Z,24.08
2016-07-10T08:03:34.381Z,24.04
2016-07-10T08:04:34.398Z,23.93
2016-07-10T08:05:34.408Z,23.92
2016-07-10T08:06:34.416Z,24.04
2016-07-10T08:07:34.429Z,24.02
2016-07-10T08:08:34.438Z,24.02
2016-07-10T08:09:34.424Z,23.96
2016-07-10T08:10:35.089Z,24.02
2016-07-10T08:11:34.477Z,24.04
2016-07-10T08:12:34.469Z,24.03
2016-07-10T08:13:34.468Z,24.07
2016-07-10T08:14:34.492Z,24
2016-07-10T08:15:34.472Z,24
2016-07-10T08:16:34.513Z,24.03
2016-07-10T08:17:34.518Z,24.02
2016-07-10T08:18:34.527Z,24.03
2016-07-10T08:19:34.524Z,24.04
2016-07-10T08:20:34.546Z,24.02
2016-07-10T08:21:34.526Z,24.03
2016-07-10T08:22:34.562Z,24.07
2016-07-10T08:23:34.568Z,24.09
2016-07-10T08:24:34.565Z,24.03
2016-07-10T08:25:34.563Z,24.03
2016-07-10T08:26:34.614Z,24.11
2016-07-10T08:27:34.619Z,24.11
2016-07-10T08:28:34.631Z,24.08
2016-07-10T08:29:34.617Z,24.08
2016-07-10T08:30:34.631Z,24
2016-07-10T08:31:34.667Z,24.04
2016-07-10T08:32:34.682Z,24.11
2016-07-10T08:33:34.688Z,24.09
2016-07-10T08:34:34.655Z,24.11
2016-07-10T08:35:34.661Z,24.11
2016-07-10T08:36:34.673Z,24.14
2016-07-10T08:37:34.716Z,24.12
2016-07-10T08:38:34.697Z,24.14
2016-07-10T08:39:34.744Z,24.07
2016-07-10T08:40:34.732Z,24.17
2016-07-10T08:41:34.710Z,24.18
2016-07-10T08:42:34.718Z,24.15
2016-07-10T08:43:34.771Z,24.11
2016-07-10T08:44:34.779Z,24.19
2016-07-10T08:45:34.745Z,24.24
2016-07-10T08:46:34.790Z,24.19
2016-07-10T08:47:34.812Z,24.15
2016-07-10T08:48:34.793Z,24.22
2016-07-10T08:49:34.801Z,24.19
2016-07-10T08:50:34.828Z,24.24
2016-07-10T08:51:34.830Z,24.26
2016-07-10T08:52:34.840Z,24.27
2016-07-10T08:53:34.844Z,24.32
2016-07-10T08:54:34.839Z,24.27
2016-07-10T08:55:34.876Z,24.3
2016-07-10T08:56:34.900Z,24.24
2016-07-10T08:57:34.882Z,24.27
2016-07-10T08:58:34.861Z,24.19
2016-07-10T08:59:34.943Z,24.15
2016-07-10T09:00:34.885Z,24.24
2016-07-10T09:01:34.945Z,24.21
2016-07-10T09:02:34.931Z,24.26
2016-07-10T09:03:34.958Z,24.21
2016-07-10T09:04:34.971Z,24.17
2016-07-10T09:05:34.963Z,24.22
2016-07-10T09:06:34.970Z,24.24
2016-07-10T09:07:34.980Z,24.3
2016-07-10T09:08:34.952Z,24.22
2016-07-10T09:09:35.017Z,24.24
2016-07-10T09:10:35.019Z,24.3
2016-07-10T09:11:35.000Z,24.3
2016-07-10T09:12:35.015Z,24.3
2016-07-10T09:13:35.014Z,24.32
2016-07-10T09:14:35.027Z,24.33
2016-07-10T09:15:35.045Z,24.33
2016-07-10T09:16:35.075Z,24.32
2016-07-10T09:17:35.037Z,24.33
2016-07-10T09:18:35.091Z,24.37
2016-07-10T09:19:35.103Z,24.36
2016-07-10T09:20:35.086Z,24.34
2016-07-10T09:21:35.123Z,24.37
2016-07-10T09:22:35.097Z,24.4
2016-07-10T09:23:35.126Z,24.32
2016-07-10T09:24:35.145Z,24.42
2016-07-10T09:25:35.133Z,24.4
2016-07-10T09:26:35.142Z,24.42
2016-07-10T09:27:35.156Z,24.46
2016-07-10T09:28:35.173Z,24.44
2016-07-10T09:29:35.149Z,24.48
2016-07-10T09:30:35.179Z,24.48
2016-07-10T09:31:35.165Z,24.48
2016-07-10T09:32:35.220Z,24.46
2016-07-10T09:33:35.241Z,24.49
2016-07-10T09:34:35.224Z,24.46
2016-07-10T09:35:35.238Z,24.54
2016-07-10T09:36:35.271Z,24.56
2016-07-10T09:37:35.263Z,24.52
2016-07-10T09:38:35.248Z,24.58
2016-07-10T09:39:35.264Z,24.55
2016-07-10T09:40:35.290Z,24.56
2016-07-10T09:41:35.290Z,24.52
2016-07-10T09:42:35.299Z,24.56
2016-07-10T09:43:35.281Z,24.59
2016-07-10T09:44:35.309Z,24.58
2016-07-10T09:45:35.314Z,24.61
2016-07-10T09:46:35.334Z,24.59
2016-07-10T09:47:35.314Z,24.59
2016-07-10T09:48:35.340Z,24.55
2016-07-10T09:49:35.357Z,24.56
2016-07-10T09:50:35.378Z,24.55
2016-07-10T09:51:35.358Z,24.58
2016-07-10T09:52:35.406Z,24.75
2016-07-10T09:53:35.390Z,24.74
2016-07-10T09:54:35.400Z,24.69
2016-07-10T09:55:35.394Z,24.77
2016-07-10T09:56:35.437Z,24.56
2016-07-10T09:57:35.465Z,24.58
2016-07-10T09:58:35.472Z,24.71
2016-07-10T09:59:35.448Z,24.66
2016-07-10T10:00:35.517Z,24.71
2016-07-10T10:01:35.463Z,24.7
2016-07-10T10:02:35.509Z,24.69
2016-07-10T10:03:35.507Z,24.69
2016-07-10T10:04:35.530Z,24.63
2016-07-10T10:05:35.518Z,24.75
2016-07-10T10:06:35.526Z,24.77
2016-07-10T10:07:35.525Z,24.78
2016-07-10T10:08:35.544Z,24.69
2016-07-10T10:09:35.538Z,24.77
2016-07-10T10:10:35.545Z,24.78
2016-07-10T10:11:35.562Z,24.77
2016-07-10T10:12:35.587Z,24.78
2016-07-10T10:13:35.582Z,24.8
2016-07-10T10:14:35.626Z,24.77
2016-07-10T10:15:35.577Z,24.85
2016-07-10T10:16:35.595Z,24.85
2016-07-10T10:17:35.638Z,24.89
2016-07-10T10:18:35.630Z,24.85
2016-07-10T10:19:35.631Z,24.82
2016-07-10T10:20:35.648Z,24.78
2016-07-10T10:21:35.661Z,24.85
2016-07-10T10:22:35.640Z,24.85
2016-07-10T10:23:35.665Z,24.83
2016-07-10T10:24:35.661Z,24.83
2016-07-10T10:25:35.713Z,24.78
2016-07-10T10:26:35.740Z,24.93
2016-07-10T10:27:35.745Z,24.78
2016-07-10T10:28:35.712Z,24.89
2016-07-10T10:29:35.718Z,24.92
2016-07-10T10:30:35.722Z,24.93
2016-07-10T10:31:35.738Z,24.9
2016-07-10T10:32:35.771Z,24.92
2016-07-10T10:33:35.806Z,24.92
2016-07-10T10:34:35.785Z,24.96
2016-07-10T10:35:35.778Z,24.93
2016-07-10T10:36:35.841Z,24.96
2016-07-10T10:37:35.815Z,25
2016-07-10T10:38:35.856Z,25.02
2016-07-10T10:39:35.827Z,24.9
2016-07-10T10:40:35.845Z,25.01
2016-07-10T10:41:35.887Z,25.04
2016-07-10T10:42:35.889Z,25.07
2016-07-10T10:43:35.857Z,25.05
2016-07-10T10:44:35.899Z,25.11
2016-07-10T10:45:35.880Z,25.11
2016-07-10T10:46:35.903Z,25.05
2016-07-10T10:47:35.934Z,25.12
2016-07-10T10:48:35.925Z,25.05
2016-07-10T10:49:35.934Z,25.07
2016-07-10T10:50:35.968Z,25.19
2016-07-10T10:51:35.941Z,25.15
2016-07-10T10:52:35.950Z,25.12
2016-07-10T10:53:35.973Z,25.15
2016-07-10T10:54:36.004Z,25.23
2016-07-10T10:55:35.955Z,25.11
2016-07-10T10:56:36.016Z,25.11
2016-07-10T10:57:36.011Z,25.14
2016-07-10T10:58:36.037Z,25.23
2016-07-10T10:59:36.032Z,25.17
2016-07-10T11:00:36.026Z,25.19
2016-07-10T11:01:36.018Z,25.17
2016-07-10T11:02:36.033Z,25.2
2016-07-10T11:03:36.059Z,25.26
2016-07-10T11:04:36.046Z,25.22
2016-07-10T11:05:36.075Z,25.3
2016-07-10T11:06:36.071Z,25.32
2016-07-10T11:07:36.095Z,25.26
2016-07-10T11:08:36.109Z,25.26
2016-07-10T11:09:36.119Z,25.33
2016-07-10T11:10:36.107Z,25.27
2016-07-10T11:11:36.776Z,25.3
2016-07-10T11:12:36.119Z,25.33
2016-07-10T11:13:36.166Z,25.32
2016-07-10T11:14:36.185Z,25.3
2016-07-10T11:15:36.173Z,25.34
2016-07-10T11:16:36.195Z,25.38
2016-07-10T11:17:36.191Z,25.39
2016-07-10T11:18:36.189Z,25.39
2016-07-10T11:19:36.223Z,25.45
2016-07-10T11:20:36.197Z,25.41
2016-07-10T11:21:36.226Z,25.41
2016-07-10T11:22:36.236Z,25.38
2016-07-10T11:23:36.220Z,25.41
2016-07-10T11:24:36.235Z,25.47
2016-07-10T11:25:36.289Z,25.47
2016-07-10T11:26:36.251Z,25.41
2016-07-10T11:27:36.297Z,25.44
2016-07-10T11:28:36.289Z,25.47
2016-07-10T11:29:36.325Z,25.51
2016-07-10T11:30:36.323Z,25.51
2016-07-10T11:31:36.344Z,25.52
2016-07-10T11:32:36.358Z,25.54
2016-07-10T11:33:36.353Z,25.54
2016-07-10T11:34:36.350Z,25.54
2016-07-10T11:35:36.374Z,25.57
2016-07-10T11:36:36.357Z,25.52
2016-07-10T11:37:36.410Z,25.54
2016-07-10T11:38:36.390Z,25.57
2016-07-10T11:39:36.440Z,25.59
2016-07-10T11:40:36.439Z,25.56
2016-07-10T11:41:36.455Z,25.57
2016-07-10T11:42:36.429Z,25.66
2016-07-10T11:43:36.424Z,25.52
2016-07-10T11:44:36.479Z,25.62
2016-07-10T11:45:36.470Z,25.52
2016-07-10T11:46:36.511Z,25.63
2016-07-10T11:47:36.479Z,25.64
2016-07-10T11:48:36.507Z,25.7
2016-07-10T11:49:36.505Z,25.79
2016-07-10T11:50:36.533Z,25.64
2016-07-10T11:51:36.535Z,25.75
2016-07-10T11:52:36.531Z,25.7
2016-07-10T11:53:36.552Z,25.7
2016-07-10T11:54:36.582Z,25.74
2016-07-10T11:55:36.589Z,25.64
2016-07-10T11:56:36.559Z,25.63
2016-07-10T11:57:36.585Z,25.67
2016-07-10T11:58:36.595Z,25.67
2016-07-10T11:59:36.601Z,25.63
2016-07-10T12:00:36.596Z,25.69
2016-07-10T12:01:36.622Z,25.69
2016-07-10T12:02:36.622Z,25.74
2016-07-10T12:03:36.646Z,25.7
2016-07-10T12:04:36.650Z,25.71
2016-07-10T12:05:36.692Z,25.79
2016-07-10T12:06:36.687Z,25.78
2016-07-10T12:07:36.700Z,25.82
2016-07-10T12:08:36.720Z,25.84
2016-07-10T12:09:36.690Z,25.81
2016-07-10T12:10:36.718Z,25.81
2016-07-10T12:11:36.703Z,25.81
2016-07-10T12:12:36.759Z,25.85
2016-07-10T12:13:36.752Z,25.81
2016-07-10T12:14:36.757Z,25.88
2016-07-10T12:15:36.788Z,25.85
2016-07-10T12:16:36.772Z,25.89
2016-07-10T12:17:36.782Z,25.89
2016-07-10T12:18:36.800Z,25.88
2016-07-10T12:19:36.836Z,25.93
2016-07-10T12:20:36.806Z,25.86
2016-07-10T12:21:36.841Z,25.93
2016-07-10T12:22:36.811Z,25.94
2016-07-10T12:23:36.863Z,25.97
2016-07-10T12:24:36.863Z,25.99
2016-07-10T12:25:36.868Z,26
2016-07-10T12:26:36.882Z,25.97
2016-07-10T12:27:36.898Z,26.03
2016-07-10T12:28:36.909Z,25.99
2016-07-10T12:29:36.897Z,25.97
2016-07-10T12:30:36.901Z,25.99
2016-07-10T12:31:36.953Z,26.01
2016-07-10T12:32:36.939Z,26.03
2016-07-10T12:33:36.963Z,26.06
2016-07-10T12:34:36.984Z,26.11
2016-07-10T12:35:36.968Z,26.15
2016-07-10T12:36:37.014Z,26.04
2016-07-10T12:37:36.990Z,26.06
2016-07-10T12:38:36.969Z,26.09
2016-07-10T12:39:37.031Z,26.15
2016-07-10T12:40:37.207Z,26.11
2016-07-10T12:41:37.032Z,26.09
2016-07-10T12:42:37.031Z,26.16
2016-07-10T12:43:37.045Z,26.11
2016-07-10T12:44:37.062Z,26.07
2016-07-10T12:45:37.100Z,26.11
2016-07-10T12:46:37.082Z,26.07
2016-07-10T12:47:37.085Z,26.11
2016-07-10T12:48:37.073Z,26.2
2016-07-10T12:49:37.110Z,26.19
2016-07-10T12:50:37.146Z,26.2
2016-07-10T12:51:37.147Z,26.15
2016-07-10T12:52:37.141Z,26.22
2016-07-10T12:53:37.142Z,26.24
2016-07-10T12:54:37.149Z,26.17
2016-07-10T12:55:37.193Z,26.16